Time;durP1;ratioP1;P1;durP2;ratioP2;P2;SDS_P1;SDS_P2;PMS_P1;PMS_P2;Temp;Humidity;BMP_temperature;BMP_pressure;BME280_temperature;BME280_humidity;BME280_pressure;Samples;Min_cycle;Max_cycle;Signal;HPM_P1;HPM_P2
2022/07/25 00:01:54;;;;;;;5.43;3.50;;;31.50;51.60;;;;;;10833168;32;20060;-72
2022/07/25 00:07:56;;;;;;;3.42;2.55;;;31.40;52.00;;;;;;10833629;32;20114;-72
2022/07/25 00:13:59;;;;;;;4.60;2.33;;;31.40;52.30;;;;;;10833582;32;20016;-72
2022/07/25 00:20:02;;;;;;;4.97;2.90;;;31.10;52.80;;;;;;10833259;32;20032;-72
2022/07/25 00:26:04;;;;;;;4.10;2.17;;;30.90;53.00;;;;;;10833123;32;20432;-72
2022/07/25 00:32:07;;;;;;;6.70;3.55;;;30.90;52.90;;;;;;10832876;32;20031;-72
2022/07/25 00:38:09;;;;;;;4.65;3.03;;;30.80;53.10;;;;;;10832527;32;20032;-72
2022/07/25 00:44:55;;;;;;;5.32;2.97;;;30.80;53.10;;;;;;10831559;32;20051;-71
2022/07/25 00:50:58;;;;;;;5.32;3.08;;;30.80;53.10;;;;;;10831188;32;20032;-72
2022/07/25 00:57:00;;;;;;;3.37;2.72;;;30.80;53.40;;;;;;10831887;32;20031;-72
2022/07/25 01:03:28;;;;;;;4.60;2.67;;;30.70;53.60;;;;;;10831890;32;20050;-72
2022/07/25 01:09:30;;;;;;;11.43;3.50;;;30.70;53.80;;;;;;10832458;32;20032;-72
2022/07/25 01:15:33;;;;;;;3.87;2.30;;;30.70;53.80;;;;;;10831625;32;20024;-72
2022/07/25 01:21:41;;;;;;;4.65;3.05;;;30.70;54.00;;;;;;10827046;33;20059;-72
2022/07/25 01:27:43;;;;;;;11.12;3.53;;;30.70;53.80;;;;;;10830956;32;20062;-72
2022/07/25 01:33:45;;;;;;;3.67;2.40;;;30.60;54.10;;;;;;10830847;32;20047;-72
2022/07/25 01:39:46;;;;;;;4.95;3.40;;;30.50;54.00;;;;;;10830749;32;20039;-72
2022/07/25 01:45:48;;;;;;;7.53;3.40;;;30.50;54.00;;;;;;10830628;32;20061;-71
2022/07/25 01:51:50;;;;;;;3.95;2.85;;;30.40;54.20;;;;;;10830215;32;20032;-71
2022/07/25 01:57:52;;;;;;;5.30;3.45;;;30.40;54.30;;;;;;10830241;32;20337;-73
2022/07/25 02:03:54;;;;;;;4.72;3.25;;;30.40;54.30;;;;;;10830052;32;20055;-72
2022/07/25 02:09:56;;;;;;;9.05;3.67;;;30.30;54.30;;;;;;10830054;33;20340;-72
2022/07/25 02:15:59;;;;;;;4.70;3.28;;;30.30;54.50;;;;;;10816898;33;20531;-73
2022/07/25 02:22:01;;;;;;;6.25;3.72;;;30.30;54.50;;;;;;10831353;32;20024;-73
2022/07/25 02:28:03;;;;;;;4.50;2.95;;;30.30;54.70;;;;;;10836966;32;20028;-71
2022/07/25 02:34:05;;;;;;;4.80;3.37;;;30.20;54.90;;;;;;10836982;32;20074;-71
2022/07/25 02:40:08;;;;;;;5.50;4.07;;;30.10;55.20;;;;;;10836806;32;20042;-71
2022/07/25 02:46:10;;;;;;;5.15;4.03;;;30.20;55.00;;;;;;10836525;32;20028;-71
2022/07/25 02:52:12;;;;;;;6.65;4.20;;;30.10;54.70;;;;;;10836405;32;20325;-73
2022/07/25 02:58:14;;;;;;;6.40;4.53;;;30.10;54.60;;;;;;10836171;32;20459;-73
2022/07/25 03:04:16;;;;;;;4.60;3.70;;;30.10;54.60;;;;;;10836011;32;20379;-73
2022/07/25 03:10:19;;;;;;;7.50;4.03;;;30.00;54.60;;;;;;10835695;32;20032;-72
2022/07/25 03:16:21;;;;;;;5.70;4.03;;;30.10;54.60;;;;;;10835604;32;20024;-72
2022/07/25 03:22:24;;;;;;;5.18;3.70;;;29.90;54.80;;;;;;10835337;32;20035;-71
2022/07/25 03:28:26;;;;;;;7.40;4.78;;;29.80;55.00;;;;;;10835087;32;20038;-71
2022/07/25 03:34:28;;;;;;;5.37;4.28;;;29.80;54.90;;;;;;10834872;32;20028;-71
2022/07/25 03:40:30;;;;;;;4.93;3.90;;;29.80;54.70;;;;;;10834820;32;20020;-71
2022/07/25 03:46:34;;;;;;;6.75;4.68;;;29.80;54.70;;;;;;10834488;32;20050;-72
2022/07/25 03:52:39;;;;;;;5.90;3.67;;;29.80;54.90;;;;;;10834297;32;20024;-72
2022/07/25 03:58:41;;;;;;;4.87;3.45;;;29.70;55.00;;;;;;10834162;32;20032;-72
2022/07/25 04:04:43;;;;;;;5.70;4.05;;;29.40;55.30;;;;;;10833829;32;20051;-72
2022/07/25 04:10:45;;;;;;;3.37;2.60;;;29.40;55.40;;;;;;10833609;32;20064;-72
2022/07/25 04:16:47;;;;;;;5.68;3.08;;;29.40;55.40;;;;;;10833489;32;20294;-71
2022/07/25 04:22:49;;;;;;;7.10;4.87;;;29.40;55.50;;;;;;10833182;32;20389;-71
2022/07/25 04:28:52;;;;;;;4.85;3.42;;;29.40;55.40;;;;;;10850812;27;20065;-72
2022/07/25 04:34:54;;;;;;;5.28;3.40;;;29.40;55.50;;;;;;10869844;32;20019;-72
2022/07/25 04:40:56;;;;;;;4.75;3.12;;;29.30;55.50;;;;;;10869588;32;20023;-72
2022/07/25 04:46:58;;;;;;;5.43;3.10;;;29.30;55.50;;;;;;10868909;32;20055;-72
2022/07/25 04:53:00;;;;;;;5.90;2.87;;;29.30;55.60;;;;;;10868973;32;20035;-72
2022/07/25 04:59:02;;;;;;;4.10;3.55;;;29.40;55.50;;;;;;10864758;32;20042;-72
2022/07/25 05:05:04;;;;;;;5.05;3.35;;;29.40;55.40;;;;;;10868834;32;20016;-72
2022/07/25 05:11:06;;;;;;;7.68;3.15;;;29.40;55.30;;;;;;10868490;32;20388;-72
2022/07/25 05:17:08;;;;;;;3.17;2.10;;;29.30;55.40;;;;;;10868291;32;20050;-72
2022/07/25 05:23:10;;;;;;;6.35;3.60;;;29.40;55.20;;;;;;10868121;32;20046;-72
2022/07/25 05:29:12;;;;;;;4.28;2.78;;;29.40;55.10;;;;;;10867891;32;20027;-72
2022/07/25 05:35:21;;;;;;;5.35;3.40;;;29.40;55.00;;;;;;10867812;32;20042;-72
2022/07/25 05:41:23;;;;;;;8.27;3.70;;;29.50;55.00;;;;;;10854393;32;20050;-72
2022/07/25 05:47:25;;;;;;;5.40;3.62;;;29.70;54.80;;;;;;10867152;32;20465;-70
2022/07/25 05:53:28;;;;;;;6.30;3.65;;;29.90;54.40;;;;;;10864429;32;20042;-70
2022/07/25 05:59:30;;;;;;;6.85;3.78;;;30.00;54.20;;;;;;10862434;32;20024;-70
2022/07/25 06:05:32;;;;;;;4.45;3.35;;;30.20;54.10;;;;;;10863397;32;20305;-68
2022/07/25 06:11:35;;;;;;;4.78;3.35;;;30.40;53.80;;;;;;10862843;32;20073;-70
2022/07/25 06:17:38;;;;;;;12.13;3.58;;;30.60;53.80;;;;;;10862733;32;20024;-70
2022/07/25 06:23:40;;;;;;;5.60;3.37;;;30.80;53.60;;;;;;10866897;32;20020;-70
2022/07/25 06:29:42;;;;;;;5.87;3.70;;;30.90;53.60;;;;;;10862563;32;20404;-70
2022/07/25 06:35:44;;;;;;;5.68;3.97;;;31.00;53.60;;;;;;10866578;32;20023;-69
2022/07/25 06:41:46;;;;;;;5.43;3.35;;;31.20;53.40;;;;;;10849815;32;20028;-69
2022/07/25 06:47:49;;;;;;;6.37;3.08;;;31.30;53.10;;;;;;10860059;32;20028;-70
2022/07/25 06:53:52;;;;;;;3.47;2.35;;;31.40;52.80;;;;;;10866266;32;20344;-70
2022/07/25 06:59:54;;;;;;;4.75;2.92;;;31.50;52.70;;;;;;10863599;32;20050;-69
2022/07/25 07:05:56;;;;;;;4.82;3.05;;;31.70;52.40;;;;;;10866050;32;20023;-70
2022/07/25 07:11:58;;;;;;;5.50;3.65;;;31.80;52.00;;;;;;10871708;32;20042;-70
2022/07/25 07:18:01;;;;;;;4.15;3.28;;;31.90;51.90;;;;;;10870313;32;20069;-70
2022/07/25 07:24:03;;;;;;;5.85;4.12;;;31.90;51.80;;;;;;10872400;32;20019;-70
2022/07/25 07:30:06;;;;;;;6.97;4.68;;;32.00;51.40;;;;;;10871105;32;20474;-69
2022/07/25 07:36:28;;;;;;;6.18;3.72;;;32.10;51.00;;;;;;10872107;32;20294;-69
2022/07/25 07:42:42;;;;;;;7.35;5.28;;;32.20;50.90;;;;;;10871816;32;20038;-70
2022/07/25 07:48:44;;;;;;;5.55;3.53;;;32.30;50.80;;;;;;10871437;32;20019;-70
2022/07/25 08:01:07;;;;;;;4.87;2.92;;;32.50;50.30;;;;;;10870794;32;20023;-69
2022/07/25 08:07:22;;;;;;;4.75;3.03;;;32.70;50.30;;;;;;10870767;32;20027;-69
2022/07/25 08:13:28;;;;;;;6.25;3.62;;;32.80;49.70;;;;;;10869249;32;20019;-71
2022/07/25 08:19:30;;;;;;;5.57;3.33;;;32.90;49.10;;;;;;10856659;32;20024;-71
2022/07/25 08:25:34;;;;;;;6.25;4.47;;;33.10;48.60;;;;;;10870211;32;20058;-71
2022/07/25 08:31:36;;;;;;;5.45;3.50;;;33.20;48.10;;;;;;10869561;32;20058;-71
2022/07/25 08:37:38;;;;;;;5.37;3.65;;;33.30;47.80;;;;;;10864754;32;20028;-71
2022/07/25 08:43:42;;;;;;;5.95;4.25;;;33.40;47.40;;;;;;10869657;32;20105;-71
2022/07/25 08:49:45;;;;;;;6.07;4.10;;;33.40;47.10;;;;;;10868546;32;20321;-71
2022/07/25 08:55:47;;;;;;;4.60;3.20;;;33.60;46.80;;;;;;10878745;32;20478;-71
2022/07/25 09:01:49;;;;;;;4.85;3.35;;;33.70;46.30;;;;;;10857975;32;20028;-71
2022/07/25 09:07:53;;;;;;;5.55;3.70;;;33.90;45.90;;;;;;10868883;32;20050;-71
2022/07/25 09:14:04;;;;;;;4.32;3.20;;;33.90;45.50;;;;;;10879892;32;20089;-71
2022/07/25 09:20:07;;;;;;;5.10;3.70;;;34.00;45.10;;;;;;10868418;32;20060;-71
2022/07/25 09:26:17;;;;;;;5.95;3.15;;;34.00;45.10;;;;;;10868121;32;20393;-71
2022/07/25 09:32:38;;;;;;;5.03;3.90;;;34.20;44.90;;;;;;10854616;32;20035;-71
2022/07/25 09:38:53;;;;;;;8.80;4.22;;;34.20;43.80;;;;;;10867692;32;20035;-71
2022/07/25 09:45:11;;;;;;;12.00;4.47;;;34.20;43.80;;;;;;10867607;32;20073;-71
2022/07/25 09:51:14;;;;;;;8.75;4.43;;;34.30;43.50;;;;;;10867573;32;20028;-71
2022/07/25 09:57:16;;;;;;;5.70;3.55;;;34.50;43.20;;;;;;10864761;32;20027;-71
2022/07/25 10:03:49;;;;;;;8.00;3.72;;;34.80;43.00;;;;;;10863463;32;20039;-71
2022/07/25 10:09:55;;;;;;;5.07;3.33;;;35.00;43.10;;;;;;10866891;32;20027;-71
2022/07/25 10:15:57;;;;;;;4.87;3.17;;;35.20;42.40;;;;;;10864335;32;20028;-71
2022/07/25 10:21:59;;;;;;;4.22;3.30;;;35.40;41.70;;;;;;10867238;32;20039;-71
2022/07/25 10:28:08;;;;;;;6.43;3.67;;;35.40;41.10;;;;;;10866766;32;20027;-71
2022/07/25 10:34:14;;;;;;;5.22;3.00;;;35.50;40.40;;;;;;10866705;32;20405;-71
2022/07/25 10:40:36;;;;;;;4.53;2.97;;;35.60;40.30;;;;;;10853426;32;20054;-71
2022/07/25 10:46:38;;;;;;;5.20;3.40;;;35.80;40.00;;;;;;10872280;32;20412;-71
2022/07/25 10:52:41;;;;;;;5.75;3.50;;;36.00;39.50;;;;;;10873606;32;20020;-71
2022/07/25 10:59:01;;;;;;;4.90;3.28;;;36.30;39.20;;;;;;10873345;32;20050;-71
2022/07/25 11:05:05;;;;;;;6.03;3.90;;;36.40;39.40;;;;;;10873258;32;20020;-71
2022/07/25 11:11:09;;;;;;;8.57;4.93;;;36.60;38.90;;;;;;10872480;32;20059;-70
2022/07/25 11:17:22;;;;;;;6.20;4.87;;;36.90;38.10;;;;;;10872863;32;20051;-71
2022/07/25 11:23:24;;;;;;;8.77;3.83;;;36.90;37.60;;;;;;10872480;32;20046;-71
2022/07/25 11:29:26;;;;;;;11.55;6.68;;;37.20;37.40;;;;;;10872166;32;20352;-70
2022/07/25 11:35:31;;;;;;;13.18;5.22;;;37.30;37.50;;;;;;10871865;32;20028;-71
2022/07/25 11:41:33;;;;;;;5.82;3.97;;;37.40;37.10;;;;;;10871947;32;20028;-71
2022/07/25 11:47:35;;;;;;;5.65;4.57;;;37.60;37.00;;;;;;10871714;32;20050;-71
2022/07/25 11:53:39;;;;;;;4.43;3.40;;;37.90;36.30;;;;;;10870625;32;20050;-71
2022/07/25 11:59:41;;;;;;;6.25;4.87;;;38.10;36.00;;;;;;10870883;32;20049;-71
2022/07/25 12:05:44;;;;;;;10.45;5.30;;;38.30;35.40;;;;;;10870956;32;20046;-72
2022/07/25 12:11:48;;;;;;;7.18;4.35;;;38.20;35.20;;;;;;10870664;32;20086;-71
2022/07/25 12:18:11;;;;;;;6.82;4.50;;;38.30;35.30;;;;;;10870681;32;20032;-71
2022/07/25 12:24:13;;;;;;;4.82;3.22;;;38.60;35.00;;;;;;10870427;32;20019;-71
2022/07/25 12:30:17;;;;;;;6.15;4.50;;;38.70;34.70;;;;;;10872735;27;20074;-72
2022/07/25 12:36:19;;;;;;;5.80;3.67;;;38.60;34.70;;;;;;10869817;32;20038;-72
2022/07/25 12:42:21;;;;;;;5.25;3.72;;;38.70;35.00;;;;;;10869767;32;20016;-72
2022/07/25 12:48:23;;;;;;;5.07;4.03;;;38.80;34.90;;;;;;10869627;32;20019;-71
2022/07/25 12:54:26;;;;;;;4.95;3.33;;;38.80;34.90;;;;;;10869118;32;20031;-72
2022/07/25 13:00:28;;;;;;;8.48;5.65;;;38.80;34.80;;;;;;10868871;32;20024;-72
2022/07/25 13:06:44;;;;;;;8.55;4.90;;;38.90;34.80;;;;;;10868517;32;20055;-71
2022/07/25 13:12:47;;;;;;;5.75;4.20;;;38.80;35.10;;;;;;10868722;32;20089;-71
2022/07/25 13:19:11;;;;;;;5.15;3.85;;;38.70;35.50;;;;;;10868392;32;20036;-69
2022/07/25 13:25:21;;;;;;;7.12;4.25;;;38.70;35.40;;;;;;10868329;32;20019;-72
2022/07/25 13:31:28;;;;;;;5.20;3.40;;;38.60;35.20;;;;;;10867992;32;20031;-72
2022/07/25 13:37:31;;;;;;;6.28;4.93;;;38.70;35.10;;;;;;10867956;32;20008;-70
2022/07/25 13:43:34;;;;;;;5.55;4.60;;;38.80;34.90;;;;;;10854438;32;20035;-71
2022/07/25 13:49:36;;;;;;;6.45;4.18;;;38.60;35.20;;;;;;10867595;32;20391;-70
2022/07/25 13:55:38;;;;;;;8.50;4.82;;;38.50;36.00;;;;;;10854176;32;20392;-71
2022/07/25 14:01:42;;;;;;;7.25;4.35;;;38.50;36.10;;;;;;10867206;32;20020;-71
2022/07/25 14:07:45;;;;;;;11.15;5.57;;;38.40;36.70;;;;;;10866960;32;20066;-71
2022/07/25 14:13:47;;;;;;;4.72;3.30;;;38.50;36.40;;;;;;10867017;32;20398;-71
2022/07/25 14:19:50;;;;;;;6.60;4.80;;;38.40;36.30;;;;;;10870696;32;20032;-71
2022/07/25 14:25:54;;;;;;;6.43;3.97;;;38.60;36.70;;;;;;10874389;32;20062;-71
2022/07/25 14:31:57;;;;;;;7.75;4.15;;;38.60;36.00;;;;;;10873905;32;20058;-72
2022/07/25 14:37:59;;;;;;;6.47;3.67;;;38.40;36.30;;;;;;10860901;32;20387;-72
2022/07/25 14:44:02;;;;;;;20.02;6.30;;;38.40;36.40;;;;;;10873711;32;20341;-71
2022/07/25 14:50:05;;;;;;;5.55;4.45;;;38.50;36.80;;;;;;10873504;32;20023;-72
2022/07/25 14:56:08;;;;;;;5.78;3.45;;;38.40;37.10;;;;;;10873194;32;20305;-71
2022/07/25 15:02:10;;;;;;;6.40;3.45;;;38.40;37.40;;;;;;10873212;32;20379;-72
2022/07/25 15:08:18;;;;;;;4.72;3.95;;;38.50;36.60;;;;;;10872763;32;20027;-72
2022/07/25 15:14:20;;;;;;;6.70;5.00;;;38.60;36.40;;;;;;10871999;32;20027;-72
2022/07/25 15:20:22;;;;;;;5.37;3.75;;;38.60;36.00;;;;;;10872580;32;20016;-72
2022/07/25 15:26:25;;;;;;;8.60;5.00;;;38.60;36.20;;;;;;10872186;32;20054;-71
2022/07/25 15:32:27;;;;;;;6.80;5.07;;;38.60;36.10;;;;;;10871644;32;20023;-72
2022/07/25 15:38:31;;;;;;;4.80;3.75;;;38.70;36.20;;;;;;10870453;32;20066;-72
2022/07/25 15:44:33;;;;;;;7.07;3.60;;;38.40;36.70;;;;;;10870488;32;20427;-71
2022/07/25 15:50:39;;;;;;;4.95;3.87;;;38.40;36.70;;;;;;10866885;32;20027;-71
2022/07/25 15:57:13;;;;;;;5.27;4.00;;;38.30;37.10;;;;;;10866391;32;20028;-71
2022/07/25 16:03:31;;;;;;;6.35;4.37;;;38.00;37.80;;;;;;10870839;32;20019;-71
2022/07/25 16:09:33;;;;;;;5.40;3.72;;;37.80;37.90;;;;;;10870892;32;20042;-71
2022/07/25 16:15:35;;;;;;;6.12;4.10;;;37.60;39.20;;;;;;10870109;32;20031;-71
2022/07/25 16:21:42;;;;;;;6.22;4.35;;;37.40;39.60;;;;;;10870454;32;20344;-71
2022/07/25 16:27:49;;;;;;;5.20;4.40;;;37.40;39.80;;;;;;10869315;32;20016;-71
2022/07/25 16:33:51;;;;;;;4.90;3.75;;;37.60;39.50;;;;;;10869128;32;20385;-71
2022/07/25 16:39:54;;;;;;;6.75;4.60;;;37.60;39.60;;;;;;10868718;32;20046;-71
2022/07/25 16:45:56;;;;;;;7.53;4.60;;;37.70;39.30;;;;;;10869776;32;20042;-72
2022/07/25 16:51:58;;;;;;;7.68;4.53;;;37.70;39.10;;;;;;10867929;32;20027;-72
2022/07/25 16:58:01;;;;;;;6.57;3.42;;;37.60;39.30;;;;;;10868565;32;20032;-72
2022/07/25 17:04:04;;;;;;;5.72;4.12;;;37.60;39.40;;;;;;10871483;32;20058;-72
2022/07/25 17:10:07;;;;;;;5.78;3.95;;;37.70;39.40;;;;;;10867965;32;20423;-72
2022/07/25 17:16:09;;;;;;;15.60;3.75;;;37.80;39.40;;;;;;10867803;32;20042;-72
2022/07/25 17:22:11;;;;;;;3.97;2.90;;;37.70;39.90;;;;;;10868213;32;20024;-72
2022/07/25 17:28:13;;;;;;;6.90;4.45;;;37.60;40.40;;;;;;10868093;32;20027;-71
2022/07/25 17:34:15;;;;;;;5.12;3.00;;;37.50;40.60;;;;;;10867099;32;20019;-72
2022/07/25 17:40:18;;;;;;;5.12;3.33;;;37.30;41.60;;;;;;10867652;32;20027;-72
2022/07/25 17:46:20;;;;;;;6.45;3.85;;;37.30;41.80;;;;;;10867625;32;20027;-72
2022/07/25 17:52:22;;;;;;;5.85;3.35;;;37.50;41.80;;;;;;10867294;32;20015;-72
2022/07/25 17:58:24;;;;;;;3.97;2.90;;;38.30;40.50;;;;;;10867333;32;20054;-72
2022/07/25 18:04:27;;;;;;;5.07;3.87;;;38.80;39.60;;;;;;10866423;32;20077;-71
2022/07/25 18:10:30;;;;;;;4.82;3.30;;;38.80;39.70;;;;;;10866698;32;20016;-71
2022/07/25 18:16:32;;;;;;;4.80;3.00;;;38.50;40.20;;;;;;10866211;32;20024;-72
2022/07/25 18:22:36;;;;;;;6.68;3.12;;;37.80;41.20;;;;;;10866684;32;20298;-72
2022/07/25 18:28:39;;;;;;;8.63;3.70;;;37.30;41.80;;;;;;10866605;32;20050;-71
2022/07/25 18:34:42;;;;;;;3.83;2.90;;;36.70;42.50;;;;;;10866644;32;20038;-72
2022/07/25 18:40:44;;;;;;;4.05;2.90;;;36.40;42.90;;;;;;10866414;32;20023;-72
2022/07/25 18:46:55;;;;;;;3.17;2.28;;;36.10;43.10;;;;;;10866167;32;20377;-72
2022/07/25 18:52:58;;;;;;;2.90;2.37;;;36.00;43.10;;;;;;10864315;32;20085;-72
2022/07/25 18:59:00;;;;;;;5.82;1.98;;;35.90;43.20;;;;;;10866059;32;20038;-72
2022/07/25 19:05:03;;;;;;;2.78;2.03;;;35.80;43.30;;;;;;10867236;32;20054;-72
2022/07/25 19:11:05;;;;;;;4.93;2.97;;;35.60;43.50;;;;;;10871646;32;20039;-72
2022/07/25 19:17:08;;;;;;;5.05;2.05;;;35.50;43.50;;;;;;10872225;32;20067;-72
2022/07/25 19:23:10;;;;;;;3.15;2.35;;;35.40;43.40;;;;;;10860085;32;20338;-72
2022/07/25 19:29:12;;;;;;;2.95;2.20;;;35.40;43.40;;;;;;10872009;32;20019;-72
2022/07/25 19:35:14;;;;;;;3.03;1.67;;;35.30;43.50;;;;;;10871673;32;20039;-72
2022/07/25 19:41:16;;;;;;;3.12;2.22;;;35.20;43.70;;;;;;10836308;32;20352;-72
2022/07/25 19:47:18;;;;;;;2.08;1.48;;;35.00;43.80;;;;;;10834760;32;20024;-72
2022/07/25 19:53:41;;;;;;;3.17;2.22;;;35.00;44.00;;;;;;10834389;32;20028;-72
2022/07/25 19:59:43;;;;;;;2.30;1.92;;;35.00;44.10;;;;;;10830206;32;20397;-72
2022/07/25 20:05:46;;;;;;;7.20;2.12;;;34.90;44.40;;;;;;10834160;32;20047;-72
2022/07/25 20:11:49;;;;;;;3.42;2.22;;;34.80;44.60;;;;;;10833868;32;20047;-72
2022/07/25 20:17:51;;;;;;;5.47;2.80;;;34.80;44.70;;;;;;10832764;32;20024;-72
2022/07/25 20:23:53;;;;;;;4.07;2.30;;;34.70;44.90;;;;;;10833599;32;20329;-72
2022/07/25 20:29:56;;;;;;;4.55;2.53;;;34.70;45.00;;;;;;10435263;27;12412766;-71
2022/07/25 20:36:00;;;;;;;2.70;1.60;;;34.60;45.10;;;;;;10793126;33;20456;-71
2022/07/25 20:42:08;;;;;;;5.22;2.60;;;34.40;45.30;;;;;;10792374;33;20020;-72
2022/07/25 20:48:11;;;;;;;4.60;2.22;;;34.40;45.40;;;;;;10792506;33;20317;-72
2022/07/25 20:54:13;;;;;;;3.10;1.73;;;34.30;45.60;;;;;;10831181;32;20042;-72
2022/07/25 21:00:32;;;;;;;2.03;1.58;;;34.30;45.60;;;;;;10906596;32;20038;-72
2022/07/25 21:06:34;;;;;;;4.07;2.40;;;34.20;45.70;;;;;;10906345;32;20050;-72
2022/07/25 21:12:37;;;;;;;5.15;2.35;;;34.10;45.90;;;;;;10906053;32;20053;-72
2022/07/25 21:18:39;;;;;;;5.40;1.55;;;34.00;46.10;;;;;;10905975;32;20101;-72
2022/07/25 21:24:41;;;;;;;3.87;1.80;;;33.90;46.40;;;;;;10905493;32;20331;-72
2022/07/25 21:30:44;;;;;;;2.72;1.80;;;33.90;46.50;;;;;;10905395;32;20408;-71
2022/07/25 21:36:46;;;;;;;4.70;2.25;;;33.80;46.80;;;;;;10905332;32;20054;-72
2022/07/25 21:42:49;;;;;;;4.45;2.50;;;33.80;47.00;;;;;;10905144;32;20050;-72
2022/07/25 21:55:46;;;;;;;3.03;2.15;;;33.50;48.70;;;;;;10900794;32;20015;-72
2022/07/25 22:01:49;;;;;;;5.25;3.00;;;33.40;49.40;;;;;;10904760;32;20300;-71
2022/07/25 22:07:51;;;;;;;8.50;2.60;;;33.40;49.50;;;;;;10904650;32;20015;-72
2022/07/25 22:13:53;;;;;;;7.05;2.85;;;33.40;49.70;;;;;;10903498;32;20023;-71
2022/07/25 22:19:55;;;;;;;4.62;2.10;;;33.40;49.60;;;;;;10891029;32;20023;-71
2022/07/25 22:25:58;;;;;;;10.88;2.58;;;33.30;49.60;;;;;;10904130;32;20054;-71
2022/07/25 22:32:00;;;;;;;5.47;2.45;;;33.20;49.60;;;;;;10903776;32;20019;-72
2022/07/25 22:38:02;;;;;;;4.75;3.00;;;33.20;49.50;;;;;;10904157;32;20054;-72
2022/07/25 22:44:05;;;;;;;5.35;3.37;;;33.20;49.70;;;;;;10911587;32;20033;-72
2022/07/25 22:50:10;;;;;;;5.22;3.67;;;33.00;49.60;;;;;;10911255;32;20073;-72
2022/07/25 22:56:13;;;;;;;3.58;2.72;;;32.80;50.00;;;;;;10911037;32;20014;-72
2022/07/25 23:02:15;;;;;;;5.90;3.05;;;32.70;50.50;;;;;;10907618;32;20050;-72
2022/07/25 23:08:17;;;;;;;3.65;2.20;;;32.80;50.60;;;;;;10910492;32;20012;-71
2022/07/25 23:14:19;;;;;;;3.00;2.08;;;32.80;50.50;;;;;;10910316;32;20015;-71
2022/07/25 23:20:21;;;;;;;3.45;2.80;;;32.80;50.60;;;;;;10906036;32;20016;-72
2022/07/25 23:26:23;;;;;;;5.28;3.22;;;32.80;50.60;;;;;;10909959;32;20042;-71
2022/07/25 23:32:26;;;;;;;5.22;3.12;;;32.70;50.70;;;;;;10909627;32;20396;-72
2022/07/25 23:38:29;;;;;;;4.65;2.65;;;32.50;50.80;;;;;;10909694;32;20383;-71
2022/07/25 23:44:31;;;;;;;6.70;3.00;;;32.40;51.10;;;;;;10909360;32;20034;-71
2022/07/25 23:50:33;;;;;;;7.00;2.97;;;32.50;51.60;;;;;;10909004;32;20032;-71
2022/07/25 23:56:36;;;;;;;7.85;2.92;;;32.50;52.00;;;;;;10908952;32;20332;-71
